sensor_id;sensor_type;location;lat;lon;timestamp;pressure;altitude;pressure_sealevel;temperature;humidity
20889;BME280;10604;51.976;7.594;2022-09-12T00:02:13;101008.81;;;30.77;33.28
20889;BME280;10604;51.976;7.594;2022-09-12T00:04:38;101005.56;;;30.57;33.32
20889;BME280;10604;51.976;7.594;2022-09-12T00:07:04;101012.19;;;30.46;33.35
20889;BME280;10604;51.976;7.594;2022-09-12T00:09:29;101009.38;;;30.14;34.12
20889;BME280;10604;51.976;7.594;2022-09-12T00:11:55;101004.94;;;30.05;34.32
20889;BME280;10604;51.976;7.594;2022-09-12T00:14:20;101005.59;;;29.98;33.99
20889;BME280;10604;51.976;7.594;2022-09-12T00:16:45;101004.94;;;30.05;34.14
20889;BME280;10604;51.976;7.594;2022-09-12T00:19:11;101002.44;;;29.85;34.21
20889;BME280;10604;51.976;7.594;2022-09-12T00:21:38;101006.00;;;30.12;34.35
20889;BME280;10604;51.976;7.594;2022-09-12T00:24:04;100997.81;;;30.20;33.99
20889;BME280;10604;51.976;7.594;2022-09-12T00:26:30;100996.09;;;30.03;33.81
20889;BME280;10604;51.976;7.594;2022-09-12T00:28:56;100990.25;;;29.89;34.21
20889;BME280;10604;51.976;7.594;2022-09-12T00:31:23;100992.56;;;29.84;34.29
20889;BME280;10604;51.976;7.594;2022-09-12T00:33:49;100995.25;;;29.68;34.14
20889;BME280;10604;51.976;7.594;2022-09-12T00:36:17;100982.72;;;29.75;34.28
20889;BME280;10604;51.976;7.594;2022-09-12T00:38:43;100982.75;;;29.91;33.77
20889;BME280;10604;51.976;7.594;2022-09-12T00:41:28;100988.25;;;30.00;33.84
20889;BME280;10604;51.976;7.594;2022-09-12T00:43:59;100985.97;;;29.87;34.03
20889;BME280;10604;51.976;7.594;2022-09-12T00:46:36;100985.22;;;30.03;33.52
20889;BME280;10604;51.976;7.594;2022-09-12T00:49:20;100974.91;;;29.80;33.92
20889;BME280;10604;51.976;7.594;2022-09-12T00:52:09;100975.28;;;29.51;34.22
20889;BME280;10604;51.976;7.594;2022-09-12T00:57:15;100968.16;;;29.92;33.72
20889;BME280;10604;51.976;7.594;2022-09-12T00:59:45;100974.63;;;30.00;33.62
20889;BME280;10604;51.976;7.594;2022-09-12T01:02:11;100961.94;;;29.74;33.92
20889;BME280;10604;51.976;7.594;2022-09-12T01:04:37;100967.50;;;30.07;33.49
20889;BME280;10604;51.976;7.594;2022-09-12T01:07:04;100962.59;;;30.10;33.54
20889;BME280;10604;51.976;7.594;2022-09-12T01:09:31;100962.25;;;30.05;33.31
20889;BME280;10604;51.976;7.594;2022-09-12T01:11:56;100958.03;;;30.19;33.36
20889;BME280;10604;51.976;7.594;2022-09-12T01:14:23;100964.47;;;30.10;33.32
20889;BME280;10604;51.976;7.594;2022-09-12T01:16:49;100971.59;;;30.03;33.38
20889;BME280;10604;51.976;7.594;2022-09-12T01:22:17;100962.72;;;29.92;33.63
20889;BME280;10604;51.976;7.594;2022-09-12T01:31:22;100968.44;;;29.81;33.47
20889;BME280;10604;51.976;7.594;2022-09-12T01:36:43;100961.25;;;29.72;33.39
20889;BME280;10604;51.976;7.594;2022-09-12T01:42:28;100955.13;;;29.62;33.59
20889;BME280;10604;51.976;7.594;2022-09-12T01:45:12;100954.56;;;29.58;34.00
20889;BME280;10604;51.976;7.594;2022-09-12T01:47:41;100958.16;;;29.59;33.42
20889;BME280;10604;51.976;7.594;2022-09-12T01:50:15;100945.91;;;29.63;33.36
20889;BME280;10604;51.976;7.594;2022-09-12T01:52:52;100942.00;;;29.57;33.90
20889;BME280;10604;51.976;7.594;2022-09-12T01:55:23;100948.13;;;29.59;33.83
20889;BME280;10604;51.976;7.594;2022-09-12T01:58:25;100944.84;;;29.48;33.50
20889;BME280;10604;51.976;7.594;2022-09-12T02:01:08;100948.53;;;29.39;33.66
20889;BME280;10604;51.976;7.594;2022-09-12T02:04:02;100933.66;;;29.59;33.33
20889;BME280;10604;51.976;7.594;2022-09-12T02:09:05;100935.72;;;29.65;32.81
20889;BME280;10604;51.976;7.594;2022-09-12T02:11:36;100937.41;;;29.58;33.08
20889;BME280;10604;51.976;7.594;2022-09-12T02:14:19;100931.66;;;29.61;33.25
20889;BME280;10604;51.976;7.594;2022-09-12T02:16:50;100934.03;;;29.64;32.85
20889;BME280;10604;51.976;7.594;2022-09-12T02:19:20;100926.84;;;29.47;33.26
20889;BME280;10604;51.976;7.594;2022-09-12T02:21:53;100933.16;;;29.30;33.37
20889;BME280;10604;51.976;7.594;2022-09-12T02:24:21;100930.75;;;29.18;33.65
20889;BME280;10604;51.976;7.594;2022-09-12T02:26:58;100931.06;;;29.15;33.73
20889;BME280;10604;51.976;7.594;2022-09-12T02:29:25;100930.41;;;29.21;33.50
20889;BME280;10604;51.976;7.594;2022-09-12T02:34:46;100925.81;;;29.48;32.84
20889;BME280;10604;51.976;7.594;2022-09-12T02:40:29;100921.28;;;29.31;33.09
20889;BME280;10604;51.976;7.594;2022-09-12T02:42:55;100924.66;;;29.25;33.27
20889;BME280;10604;51.976;7.594;2022-09-12T02:45:21;100913.69;;;29.08;33.48
20889;BME280;10604;51.976;7.594;2022-09-12T02:47:51;100913.09;;;29.23;33.42
20889;BME280;10604;51.976;7.594;2022-09-12T02:50:19;100917.09;;;29.10;33.33
20889;BME280;10604;51.976;7.594;2022-09-12T02:52:45;100912.69;;;29.09;33.20
20889;BME280;10604;51.976;7.594;2022-09-12T02:55:12;100903.16;;;29.13;33.22
20889;BME280;10604;51.976;7.594;2022-09-12T02:57:38;100906.75;;;29.14;33.35
20889;BME280;10604;51.976;7.594;2022-09-12T03:00:05;100916.56;;;29.07;33.14
20889;BME280;10604;51.976;7.594;2022-09-12T03:08:39;100906.75;;;29.14;33.11
20889;BME280;10604;51.976;7.594;2022-09-12T03:19:23;100910.84;;;28.84;33.28
20889;BME280;10604;51.976;7.594;2022-09-12T03:24:39;100897.81;;;28.70;33.46
20889;BME280;10604;51.976;7.594;2022-09-12T03:27:18;100901.84;;;28.66;33.55
20889;BME280;10604;51.976;7.594;2022-09-12T03:29:46;100905.78;;;27.65;34.62
20889;BME280;10604;51.976;7.594;2022-09-12T03:32:13;100893.41;;;27.25;35.38
20889;BME280;10604;51.976;7.594;2022-09-12T03:34:39;100899.00;;;27.96;34.49
20889;BME280;10604;51.976;7.594;2022-09-12T03:37:04;100890.94;;;27.87;34.53
20889;BME280;10604;51.976;7.594;2022-09-12T03:39:30;100892.44;;;27.99;34.42
20889;BME280;10604;51.976;7.594;2022-09-12T03:41:55;100891.13;;;26.74;35.85
20889;BME280;10604;51.976;7.594;2022-09-12T03:44:21;100891.91;;;27.41;35.39
20889;BME280;10604;51.976;7.594;2022-09-12T03:46:47;100899.53;;;28.00;34.75
20889;BME280;10604;51.976;7.594;2022-09-12T03:49:13;100903.28;;;27.99;34.60
20889;BME280;10604;51.976;7.594;2022-09-12T03:51:38;100901.00;;;27.94;34.51
20889;BME280;10604;51.976;7.594;2022-09-12T03:54:05;100900.38;;;28.00;34.40
20889;BME280;10604;51.976;7.594;2022-09-12T03:56:30;100903.88;;;27.93;34.36
20889;BME280;10604;51.976;7.594;2022-09-12T03:58:56;100894.25;;;27.81;34.49
20889;BME280;10604;51.976;7.594;2022-09-12T04:01:22;100898.59;;;27.74;34.70
20889;BME280;10604;51.976;7.594;2022-09-12T04:03:49;100900.09;;;27.58;35.11
20889;BME280;10604;51.976;7.594;2022-09-12T04:06:18;100897.34;;;27.41;35.15
20889;BME280;10604;51.976;7.594;2022-09-12T04:08:47;100894.78;;;27.39;35.12
20889;BME280;10604;51.976;7.594;2022-09-12T04:11:15;100900.28;;;27.47;34.94
20889;BME280;10604;51.976;7.594;2022-09-12T04:13:42;100896.72;;;27.47;34.93
20889;BME280;10604;51.976;7.594;2022-09-12T04:16:08;100902.00;;;27.48;35.29
20889;BME280;10604;51.976;7.594;2022-09-12T04:18:34;100892.44;;;27.44;34.79
20889;BME280;10604;51.976;7.594;2022-09-12T04:21:05;100891.53;;;27.63;34.72
20889;BME280;10604;51.976;7.594;2022-09-12T04:23:31;100896.88;;;27.73;34.48
20889;BME280;10604;51.976;7.594;2022-09-12T04:25:58;100885.66;;;27.67;34.41
20889;BME280;10604;51.976;7.594;2022-09-12T04:28:25;100878.84;;;27.63;34.79
20889;BME280;10604;51.976;7.594;2022-09-12T04:30:50;100880.69;;;27.63;34.68
20889;BME280;10604;51.976;7.594;2022-09-12T04:33:16;100884.44;;;27.52;34.95
20889;BME280;10604;51.976;7.594;2022-09-12T04:35:41;100878.28;;;27.23;34.63
20889;BME280;10604;51.976;7.594;2022-09-12T04:38:07;100882.56;;;27.62;35.04
20889;BME280;10604;51.976;7.594;2022-09-12T04:40:33;100885.41;;;27.79;34.33
20889;BME280;10604;51.976;7.594;2022-09-12T04:42:59;100880.88;;;28.15;33.99
20889;BME280;10604;51.976;7.594;2022-09-12T04:45:24;100885.25;;;27.62;34.21
20889;BME280;10604;51.976;7.594;2022-09-12T04:47:49;100882.06;;;27.67;34.81
20889;BME280;10604;51.976;7.594;2022-09-12T04:50:15;100884.03;;;27.75;34.04
20889;BME280;10604;51.976;7.594;2022-09-12T04:52:40;100886.88;;;27.73;34.40
20889;BME280;10604;51.976;7.594;2022-09-12T04:55:07;100883.41;;;27.81;34.48
20889;BME280;10604;51.976;7.594;2022-09-12T04:57:34;100885.56;;;27.50;34.62
20889;BME280;10604;51.976;7.594;2022-09-12T04:59:59;100878.91;;;27.72;34.62
20889;BME280;10604;51.976;7.594;2022-09-12T05:02:25;100886.66;;;27.66;34.33
20889;BME280;10604;51.976;7.594;2022-09-12T05:04:50;100881.00;;;27.50;34.69
20889;BME280;10604;51.976;7.594;2022-09-12T05:07:17;100875.09;;;27.37;34.74
20889;BME280;10604;51.976;7.594;2022-09-12T05:09:43;100879.91;;;27.43;34.76
20889;BME280;10604;51.976;7.594;2022-09-12T05:12:08;100875.22;;;27.08;34.94
20889;BME280;10604;51.976;7.594;2022-09-12T05:14:34;100879.53;;;27.01;35.74
20889;BME280;10604;51.976;7.594;2022-09-12T05:17:00;100887.00;;;26.89;35.35
20889;BME280;10604;51.976;7.594;2022-09-12T05:19:27;100876.34;;;27.15;35.36
20889;BME280;10604;51.976;7.594;2022-09-12T05:21:52;100876.78;;;27.11;35.33
20889;BME280;10604;51.976;7.594;2022-09-12T05:24:18;100880.09;;;27.05;35.68
20889;BME280;10604;51.976;7.594;2022-09-12T05:26:43;100869.28;;;26.95;35.41
20889;BME280;10604;51.976;7.594;2022-09-12T05:29:08;100876.56;;;26.95;35.92
20889;BME280;10604;51.976;7.594;2022-09-12T05:31:34;100881.44;;;27.28;35.17
20889;BME280;10604;51.976;7.594;2022-09-12T05:33:59;100880.75;;;27.16;35.67
20889;BME280;10604;51.976;7.594;2022-09-12T05:36:27;100878.50;;;27.39;35.70
20889;BME280;10604;51.976;7.594;2022-09-12T05:38:53;100884.44;;;27.52;35.06
20889;BME280;10604;51.976;7.594;2022-09-12T05:41:23;100887.88;;;27.54;35.50
20889;BME280;10604;51.976;7.594;2022-09-12T05:43:54;100882.72;;;27.51;35.46
20889;BME280;10604;51.976;7.594;2022-09-12T05:46:22;100875.91;;;27.47;35.79
20889;BME280;10604;51.976;7.594;2022-09-12T05:48:48;100881.94;;;27.41;35.50
20889;BME280;10604;51.976;7.594;2022-09-12T05:51:15;100871.72;;;27.80;35.12
20889;BME280;10604;51.976;7.594;2022-09-12T05:54:05;100879.06;;;27.88;34.96
20889;BME280;10604;51.976;7.594;2022-09-12T05:56:33;100884.50;;;27.88;34.95
20889;BME280;10604;51.976;7.594;2022-09-12T05:59:04;100882.34;;;28.09;35.32
20889;BME280;10604;51.976;7.594;2022-09-12T06:01:32;100884.88;;;28.20;35.01
20889;BME280;10604;51.976;7.594;2022-09-12T06:04:00;100885.38;;;28.24;35.61
20889;BME280;10604;51.976;7.594;2022-09-12T06:06:27;100886.69;;;28.37;35.52
20889;BME280;10604;51.976;7.594;2022-09-12T06:08:57;100896.25;;;28.41;35.81
20889;BME280;10604;51.976;7.594;2022-09-12T06:11:25;100900.75;;;28.59;34.98
20889;BME280;10604;51.976;7.594;2022-09-12T06:13:51;100894.59;;;28.49;35.82
20889;BME280;10604;51.976;7.594;2022-09-12T06:16:19;100898.13;;;28.67;35.31
20889;BME280;10604;51.976;7.594;2022-09-12T06:18:50;100879.59;;;28.88;35.30
20889;BME280;10604;51.976;7.594;2022-09-12T06:21:16;100882.63;;;28.85;36.07
20889;BME280;10604;51.976;7.594;2022-09-12T06:23:42;100881.72;;;29.02;35.22
20889;BME280;10604;51.976;7.594;2022-09-12T06:26:10;100875.94;;;28.97;35.67
20889;BME280;10604;51.976;7.594;2022-09-12T06:28:39;100874.63;;;28.75;36.59
20889;BME280;10604;51.976;7.594;2022-09-12T06:31:09;100878.84;;;28.78;36.34
20889;BME280;10604;51.976;7.594;2022-09-12T06:33:37;100876.34;;;29.10;35.87
20889;BME280;10604;51.976;7.594;2022-09-12T06:36:07;100872.72;;;29.36;35.63
20889;BME280;10604;51.976;7.594;2022-09-12T06:38:33;100871.81;;;29.61;35.88
20889;BME280;10604;51.976;7.594;2022-09-12T06:40:58;100874.22;;;29.72;35.45
20889;BME280;10604;51.976;7.594;2022-09-12T06:43:25;100871.06;;;30.09;35.08
20889;BME280;10604;51.976;7.594;2022-09-12T06:45:50;100871.91;;;30.10;34.92
20889;BME280;10604;51.976;7.594;2022-09-12T06:48:16;100871.94;;;30.26;35.47
20889;BME280;10604;51.976;7.594;2022-09-12T06:50:42;100871.41;;;30.22;35.26
20889;BME280;10604;51.976;7.594;2022-09-12T06:53:07;100878.88;;;30.20;35.41
20889;BME280;10604;51.976;7.594;2022-09-12T06:55:33;100867.16;;;30.20;35.51
20889;BME280;10604;51.976;7.594;2022-09-12T06:57:59;100877.00;;;30.78;34.38
20889;BME280;10604;51.976;7.594;2022-09-12T07:00:24;100880.75;;;30.77;34.80
20889;BME280;10604;51.976;7.594;2022-09-12T07:02:53;100878.16;;;31.07;34.85
20889;BME280;10604;51.976;7.594;2022-09-12T07:05:21;100871.81;;;31.15;34.21
20889;BME280;10604;51.976;7.594;2022-09-12T07:07:46;100876.47;;;31.45;33.78
20889;BME280;10604;51.976;7.594;2022-09-12T07:10:12;100881.38;;;31.50;34.09
20889;BME280;10604;51.976;7.594;2022-09-12T07:12:39;100886.97;;;31.65;33.63
20889;BME280;10604;51.976;7.594;2022-09-12T07:15:04;100885.56;;;32.22;32.83
20889;BME280;10604;51.976;7.594;2022-09-12T07:17:30;100880.91;;;32.31;33.43
20889;BME280;10604;51.976;7.594;2022-09-12T07:19:55;100889.50;;;32.43;32.76
20889;BME280;10604;51.976;7.594;2022-09-12T07:22:21;100882.03;;;32.37;33.32
20889;BME280;10604;51.976;7.594;2022-09-12T07:24:46;100883.25;;;32.11;33.14
20889;BME280;10604;51.976;7.594;2022-09-12T07:27:12;100882.81;;;32.68;32.99
20889;BME280;10604;51.976;7.594;2022-09-12T07:29:37;100879.81;;;32.55;33.40
20889;BME280;10604;51.976;7.594;2022-09-12T07:32:03;100894.75;;;32.67;32.71
20889;BME280;10604;51.976;7.594;2022-09-12T07:34:30;100894.88;;;32.74;32.80
20889;BME280;10604;51.976;7.594;2022-09-12T07:36:55;100884.53;;;33.13;32.02
20889;BME280;10604;51.976;7.594;2022-09-12T07:39:21;100887.94;;;33.00;32.27
20889;BME280;10604;51.976;7.594;2022-09-12T07:41:46;100878.19;;;32.98;32.68
20889;BME280;10604;51.976;7.594;2022-09-12T07:44:12;100880.09;;;33.12;32.77
20889;BME280;10604;51.976;7.594;2022-09-12T07:46:37;100884.13;;;33.60;32.36
20889;BME280;10604;51.976;7.594;2022-09-12T07:49:04;100884.50;;;33.57;32.29
20889;BME280;10604;51.976;7.594;2022-09-12T07:51:29;100890.44;;;33.75;31.36
20889;BME280;10604;51.976;7.594;2022-09-12T07:53:55;100884.75;;;33.62;32.27
20889;BME280;10604;51.976;7.594;2022-09-12T07:56:21;100891.75;;;33.79;31.36
20889;BME280;10604;51.976;7.594;2022-09-12T07:58:47;100886.03;;;33.74;31.95
20889;BME280;10604;51.976;7.594;2022-09-12T08:01:20;100883.78;;;33.85;31.38
20889;BME280;10604;51.976;7.594;2022-09-12T08:03:48;100878.66;;;33.75;31.95
20889;BME280;10604;51.976;7.594;2022-09-12T08:06:16;100879.38;;;33.69;32.29
20889;BME280;10604;51.976;7.594;2022-09-12T08:08:45;100884.84;;;34.05;31.62
20889;BME280;10604;51.976;7.594;2022-09-12T08:11:12;100887.88;;;34.10;31.79
20889;BME280;10604;51.976;7.594;2022-09-12T08:13:40;100888.72;;;34.10;31.83
20889;BME280;10604;51.976;7.594;2022-09-12T08:16:15;100882.78;;;34.07;31.39
20889;BME280;10604;51.976;7.594;2022-09-12T08:18:40;100878.09;;;34.22;31.74
20889;BME280;10604;51.976;7.594;2022-09-12T08:21:30;100884.44;;;34.23;31.53
20889;BME280;10604;51.976;7.594;2022-09-12T08:24:04;100884.78;;;34.41;30.76
20889;BME280;10604;51.976;7.594;2022-09-12T08:26:31;100877.03;;;35.00;30.41
20889;BME280;10604;51.976;7.594;2022-09-12T08:28:57;100882.19;;;34.82;30.96
20889;BME280;10604;51.976;7.594;2022-09-12T08:31:24;100883.56;;;34.99;30.31
20889;BME280;10604;51.976;7.594;2022-09-12T08:33:53;100878.13;;;35.06;30.36
20889;BME280;10604;51.976;7.594;2022-09-12T08:36:21;100879.09;;;35.26;30.54
20889;BME280;10604;51.976;7.594;2022-09-12T08:38:49;100879.88;;;35.13;30.49
20889;BME280;10604;51.976;7.594;2022-09-12T08:41:34;100876.69;;;35.51;30.19
20889;BME280;10604;51.976;7.594;2022-09-12T08:52:04;100875.31;;;35.81;29.70
20889;BME280;10604;51.976;7.594;2022-09-12T08:54:31;100869.03;;;35.87;30.21
20889;BME280;10604;51.976;7.594;2022-09-12T08:57:02;100868.69;;;36.30;28.97
20889;BME280;10604;51.976;7.594;2022-09-12T08:59:37;100868.88;;;36.88;27.96
20889;BME280;10604;51.976;7.594;2022-09-12T09:16:53;100882.91;;;38.58;26.49
20889;BME280;10604;51.976;7.594;2022-09-12T09:19:03;100876.56;;;39.00;26.04
20889;BME280;10604;51.976;7.594;2022-09-12T09:21:38;100871.91;;;38.94;26.22
20889;BME280;10604;51.976;7.594;2022-09-12T09:24:08;100876.41;;;39.13;25.78
20889;BME280;10604;51.976;7.594;2022-09-12T09:29:50;100877.47;;;40.09;24.69
20889;BME280;10604;51.976;7.594;2022-09-12T09:32:27;100877.31;;;39.44;25.64
20889;BME280;10604;51.976;7.594;2022-09-12T09:34:55;100872.41;;;39.46;24.68
20889;BME280;10604;51.976;7.594;2022-09-12T09:38:01;100863.19;;;39.15;25.44
20889;BME280;10604;51.976;7.594;2022-09-12T09:43:11;100863.47;;;39.62;25.38
20889;BME280;10604;51.976;7.594;2022-09-12T09:45:40;100855.81;;;39.46;25.60
20889;BME280;10604;51.976;7.594;2022-09-12T09:50:35;100871.72;;;40.87;24.79
20889;BME280;10604;51.976;7.594;2022-09-12T09:53:02;100866.44;;;40.74;25.00
20889;BME280;10604;51.976;7.594;2022-09-12T09:55:33;100855.03;;;41.33;24.30
20889;BME280;10604;51.976;7.594;2022-09-12T09:58:03;100860.75;;;42.12;23.29
20889;BME280;10604;51.976;7.594;2022-09-12T10:00:32;100863.56;;;42.62;22.78
20889;BME280;10604;51.976;7.594;2022-09-12T10:05:51;100849.72;;;43.93;21.03
20889;BME280;10604;51.976;7.594;2022-09-12T10:11:00;100851.63;;;43.44;21.16
20889;BME280;10604;51.976;7.594;2022-09-12T10:16:03;100838.16;;;42.53;21.76
20889;BME280;10604;51.976;7.594;2022-09-12T10:18:38;100842.81;;;40.59;23.42
20889;BME280;10604;51.976;7.594;2022-09-12T10:24:27;100834.00;;;41.21;23.36
20889;BME280;10604;51.976;7.594;2022-09-12T10:26:54;100827.81;;;41.70;22.90
20889;BME280;10604;51.976;7.594;2022-09-12T10:29:28;100839.13;;;42.31;22.61
20889;BME280;10604;51.976;7.594;2022-09-12T10:32:02;100821.25;;;42.55;21.72
20889;BME280;10604;51.976;7.594;2022-09-12T10:34:34;100823.56;;;43.02;21.63
20889;BME280;10604;51.976;7.594;2022-09-12T10:37:06;100820.09;;;43.82;20.97
20889;BME280;10604;51.976;7.594;2022-09-12T10:39:34;100828.31;;;44.25;20.33
20889;BME280;10604;51.976;7.594;2022-09-12T10:42:00;100817.81;;;44.32;20.31
20889;BME280;10604;51.976;7.594;2022-09-12T10:44:31;100825.09;;;44.80;20.25
20889;BME280;10604;51.976;7.594;2022-09-12T10:46:58;100824.47;;;44.31;19.60
20889;BME280;10604;51.976;7.594;2022-09-12T10:49:28;100811.00;;;43.64;20.64
20889;BME280;10604;51.976;7.594;2022-09-12T10:51:55;100817.16;;;44.25;19.48
20889;BME280;10604;51.976;7.594;2022-09-12T10:54:25;100812.84;;;44.81;20.18
20889;BME280;10604;51.976;7.594;2022-09-12T10:57:49;100809.53;;;45.52;19.75
20889;BME280;10604;51.976;7.594;2022-09-12T11:00:07;100811.03;;;45.12;19.58
20889;BME280;10604;51.976;7.594;2022-09-12T11:02:47;100802.59;;;45.80;18.20
20889;BME280;10604;51.976;7.594;2022-09-12T11:07:54;100795.38;;;43.58;19.76
20889;BME280;10604;51.976;7.594;2022-09-12T11:10:29;100799.25;;;42.70;20.57
20889;BME280;10604;51.976;7.594;2022-09-12T11:13:22;100791.78;;;42.54;21.09
20889;BME280;10604;51.976;7.594;2022-09-12T11:21:41;100786.22;;;44.59;20.08
20889;BME280;10604;51.976;7.594;2022-09-12T11:40:54;100774.97;;;45.78;17.88
20889;BME280;10604;51.976;7.594;2022-09-12T11:45:58;100752.94;;;44.84;19.54
20889;BME280;10604;51.976;7.594;2022-09-12T11:51:02;100752.13;;;44.36;19.00
20889;BME280;10604;51.976;7.594;2022-09-12T11:53:35;100747.94;;;43.97;19.39
20889;BME280;10604;51.976;7.594;2022-09-12T11:56:13;100753.31;;;43.77;19.23
20889;BME280;10604;51.976;7.594;2022-09-12T11:58:40;100750.56;;;43.28;19.34
20889;BME280;10604;51.976;7.594;2022-09-12T12:01:20;100755.13;;;43.66;19.42
20889;BME280;10604;51.976;7.594;2022-09-12T12:03:48;100740.69;;;44.80;18.97
20889;BME280;10604;51.976;7.594;2022-09-12T12:06:20;100747.06;;;45.58;18.48
20889;BME280;10604;51.976;7.594;2022-09-12T12:08:48;100742.25;;;45.28;18.63
20889;BME280;10604;51.976;7.594;2022-09-12T12:16:39;100742.59;;;45.97;18.01
20889;BME280;10604;51.976;7.594;2022-09-12T12:19:29;100735.91;;;45.78;18.52
20889;BME280;10604;51.976;7.594;2022-09-12T12:22:04;100735.88;;;46.39;18.09
20889;BME280;10604;51.976;7.594;2022-09-12T12:24:31;100742.56;;;47.18;17.45
20889;BME280;10604;51.976;7.594;2022-09-12T12:27:01;100739.03;;;46.92;16.99
20889;BME280;10604;51.976;7.594;2022-09-12T12:34:30;100737.22;;;47.21;16.47
20889;BME280;10604;51.976;7.594;2022-09-12T12:36:56;100745.16;;;47.87;15.86
20889;BME280;10604;51.976;7.594;2022-09-12T12:42:00;100735.78;;;46.69;17.52
20889;BME280;10604;51.976;7.594;2022-09-12T12:47:25;100725.47;;;47.19;16.52
20889;BME280;10604;51.976;7.594;2022-09-12T12:49:55;100720.78;;;46.45;16.89
20889;BME280;10604;51.976;7.594;2022-09-12T12:52:22;100708.72;;;46.50;16.51
20889;BME280;10604;51.976;7.594;2022-09-12T12:54:52;100721.59;;;47.59;15.58
20889;BME280;10604;51.976;7.594;2022-09-12T13:00:25;100691.41;;;46.53;16.51
20889;BME280;10604;51.976;7.594;2022-09-12T13:05:25;100687.41;;;47.62;15.83
20889;BME280;10604;51.976;7.594;2022-09-12T13:07:57;100689.53;;;47.46;15.36
20889;BME280;10604;51.976;7.594;2022-09-12T13:10:28;100689.28;;;47.77;16.13
20889;BME280;10604;51.976;7.594;2022-09-12T13:12:59;100678.94;;;46.25;15.73
20889;BME280;10604;51.976;7.594;2022-09-12T13:18:41;100678.44;;;45.67;16.32
20889;BME280;10604;51.976;7.594;2022-09-12T13:21:20;100681.66;;;47.48;15.49
20889;BME280;10604;51.976;7.594;2022-09-12T13:24:04;100669.19;;;46.97;15.63
20889;BME280;10604;51.976;7.594;2022-09-12T13:26:39;100666.13;;;46.88;15.73
20889;BME280;10604;51.976;7.594;2022-09-12T13:31:39;100663.91;;;45.24;16.34
20889;BME280;10604;51.976;7.594;2022-09-12T13:34:07;100653.78;;;43.84;17.69
20889;BME280;10604;51.976;7.594;2022-09-12T13:37:03;100660.47;;;43.24;18.65
20889;BME280;10604;51.976;7.594;2022-09-12T13:39:46;100648.84;;;45.15;18.41
20889;BME280;10604;51.976;7.594;2022-09-12T13:44:53;100653.75;;;44.78;17.44
20889;BME280;10604;51.976;7.594;2022-09-12T13:47:52;100648.88;;;43.96;17.55
20889;BME280;10604;51.976;7.594;2022-09-12T13:50:22;100644.69;;;44.45;16.80
20889;BME280;10604;51.976;7.594;2022-09-12T13:53:06;100643.53;;;45.34;16.96
20889;BME280;10604;51.976;7.594;2022-09-12T13:55:40;100638.44;;;42.90;18.80
20889;BME280;10604;51.976;7.594;2022-09-12T13:58:25;100635.19;;;44.36;18.08
20889;BME280;10604;51.976;7.594;2022-09-12T14:03:32;100628.00;;;43.98;17.12
20889;BME280;10604;51.976;7.594;2022-09-12T14:06:17;100632.81;;;43.71;17.91
20889;BME280;10604;51.976;7.594;2022-09-12T14:08:45;100623.59;;;44.60;18.00
20889;BME280;10604;51.976;7.594;2022-09-12T14:11:20;100614.66;;;44.47;17.27
20889;BME280;10604;51.976;7.594;2022-09-12T14:13:48;100608.56;;;44.61;17.39
20889;BME280;10604;51.976;7.594;2022-09-12T14:16:14;100613.97;;;44.30;17.46
20889;BME280;10604;51.976;7.594;2022-09-12T14:18:41;100605.66;;;44.35;17.71
20889;BME280;10604;51.976;7.594;2022-09-12T14:21:11;100604.00;;;43.87;17.64
20889;BME280;10604;51.976;7.594;2022-09-12T14:23:41;100609.53;;;43.82;18.29
20889;BME280;10604;51.976;7.594;2022-09-12T14:26:10;100599.97;;;44.10;18.86
20889;BME280;10604;51.976;7.594;2022-09-12T14:28:40;100592.81;;;44.29;17.95
20889;BME280;10604;51.976;7.594;2022-09-12T14:31:22;100597.97;;;44.68;18.09
20889;BME280;10604;51.976;7.594;2022-09-12T14:33:50;100590.56;;;45.14;17.95
20889;BME280;10604;51.976;7.594;2022-09-12T14:39:00;100577.78;;;44.30;17.41
20889;BME280;10604;51.976;7.594;2022-09-12T14:41:30;100586.91;;;45.03;17.64
20889;BME280;10604;51.976;7.594;2022-09-12T14:43:59;100575.44;;;44.02;17.85
20889;BME280;10604;51.976;7.594;2022-09-12T14:46:36;100574.16;;;44.20;18.13
20889;BME280;10604;51.976;7.594;2022-09-12T14:49:28;100565.22;;;45.26;17.50
20889;BME280;10604;51.976;7.594;2022-09-12T14:51:59;100566.31;;;45.30;17.19
20889;BME280;10604;51.976;7.594;2022-09-12T14:56:56;100566.84;;;45.06;17.42
20889;BME280;10604;51.976;7.594;2022-09-12T14:59:36;100571.91;;;45.09;16.94
20889;BME280;10604;51.976;7.594;2022-09-12T15:07:35;100563.53;;;45.04;16.68
20889;BME280;10604;51.976;7.594;2022-09-12T15:12:36;100558.75;;;44.74;17.67
20889;BME280;10604;51.976;7.594;2022-09-12T15:15:12;100556.00;;;45.25;17.54
20889;BME280;10604;51.976;7.594;2022-09-12T15:17:37;100557.09;;;45.04;18.02
20889;BME280;10604;51.976;7.594;2022-09-12T15:20:03;100557.13;;;45.14;17.57
20889;BME280;10604;51.976;7.594;2022-09-12T15:22:30;100548.31;;;44.34;18.01
20889;BME280;10604;51.976;7.594;2022-09-12T15:24:57;100544.53;;;44.91;18.00
20889;BME280;10604;51.976;7.594;2022-09-12T15:27:22;100542.34;;;45.03;18.32
20889;BME280;10604;51.976;7.594;2022-09-12T15:29:50;100542.88;;;44.85;17.94
20889;BME280;10604;51.976;7.594;2022-09-12T15:32:22;100543.94;;;44.64;17.84
20889;BME280;10604;51.976;7.594;2022-09-12T15:34:48;100538.34;;;44.59;17.80
20889;BME280;10604;51.976;7.594;2022-09-12T15:37:13;100538.44;;;45.19;17.75
20889;BME280;10604;51.976;7.594;2022-09-12T15:39:39;100532.03;;;44.83;17.58
20889;BME280;10604;51.976;7.594;2022-09-12T15:42:05;100537.34;;;45.26;17.80
20889;BME280;10604;51.976;7.594;2022-09-12T15:44:30;100537.34;;;45.26;17.40
20889;BME280;10604;51.976;7.594;2022-09-12T15:46:56;100535.09;;;45.28;17.49